Time;durP1;ratioP1;P1;durP2;ratioP2;P2;SDS_P1;SDS_P2;PMS_P1;PMS_P2;Temp;Humidity;BMP_temperature;BMP_pressure;BME280_temperature;BME280_humidity;BME280_pressure;Samples;Min_cycle;Max_cycle;Signal;HPM_P1;HPM_P2
2024/01/25 00:00:39;;;;;;;1.50;1.40;;;10.10;60.00;;;;;;5073785;28;20570;-73
2024/01/25 00:03:07;;;;;;;1.23;1.13;;;10.10;60.10;;;;;;5073829;28;20445;-73
2024/01/25 00:05:35;;;;;;;2.10;0.80;;;10.10;60.10;;;;;;5073077;28;20510;-73
2024/01/25 00:08:05;;;;;;;0.50;0.10;;;10.10;60.20;;;;;;5073511;28;20525;-73
2024/01/25 00:10:32;;;;;;;2.10;1.47;;;10.10;61.00;;;;;;5073858;28;20531;-73
2024/01/25 00:13:01;;;;;;;0.60;0.53;;;10.10;61.30;;;;;;5075178;28;20456;-73
2024/01/25 00:15:30;;;;;;;1.07;0.97;;;10.10;62.10;;;;;;5073386;28;20445;-73
2024/01/25 00:17:58;;;;;;;1.73;0.20;;;10.10;62.80;;;;;;5073658;28;20554;-73
2024/01/25 00:20:26;;;;;;;20.20;2.67;;;10.00;63.40;;;;;;5081206;28;20438;-73
2024/01/25 00:22:54;;;;;;;0.50;0.20;;;10.00;64.80;;;;;;5073518;28;20982;-74
2024/01/25 00:25:22;;;;;;;1.63;0.70;;;10.00;65.10;;;;;;5091243;28;20493;-73
2024/01/25 00:27:50;;;;;;;0.50;0.10;;;10.00;67.80;;;;;;5080446;28;20472;-72
2024/01/25 00:30:19;;;;;;;1.03;0.93;;;10.00;67.70;;;;;;5073427;28;20863;-72
2024/01/25 00:32:49;;;;;;;4.77;2.73;;;10.00;69.10;;;;;;5074085;28;20437;-72
2024/01/25 00:35:17;;;;;;;0.50;0.10;;;10.00;69.60;;;;;;5075334;28;20443;-73
2024/01/25 00:37:46;;;;;;;9.93;6.37;;;10.00;70.30;;;;;;5095211;28;20488;-75
2024/01/25 00:40:14;;;;;;;0.60;0.40;;;10.00;71.50;;;;;;5094315;28;20529;-73
2024/01/25 00:42:45;;;;;;;2.20;0.67;;;10.00;71.70;;;;;;5093296;28;20445;-73
2024/01/25 00:45:14;;;;;;;3.50;0.97;;;10.00;72.10;;;;;;5082145;28;20436;-74
2024/01/25 00:47:42;;;;;;;0.50;0.20;;;10.00;72.50;;;;;;5093103;28;20918;-74
2024/01/25 00:50:12;;;;;;;0.50;0.10;;;10.10;73.10;;;;;;5084896;28;20538;-73
2024/01/25 00:52:41;;;;;;;5.27;0.33;;;10.10;73.80;;;;;;5093473;28;20433;-73
2024/01/25 00:55:10;;;;;;;9.50;3.43;;;10.10;73.90;;;;;;5073376;28;20467;-72
2024/01/25 00:57:39;;;;;;;0.50;0.10;;;10.00;73.70;;;;;;5072202;28;20541;-72
2024/01/25 01:00:09;;;;;;;1.33;0.60;;;10.10;74.70;;;;;;5072515;28;20522;-73
2024/01/25 01:02:40;;;;;;;0.50;0.10;;;10.10;74.70;;;;;;5072565;28;20486;-73
2024/01/25 01:05:09;;;;;;;0.90;0.50;;;10.10;74.70;;;;;;5072669;28;20451;-75
2024/01/25 01:07:40;;;;;;;1.33;0.67;;;10.00;74.90;;;;;;5072346;28;20518;-74
2024/01/25 01:10:09;;;;;;;4.43;0.93;;;10.10;75.00;;;;;;5072130;28;20449;-74
2024/01/25 01:12:37;;;;;;;0.60;0.40;;;10.10;75.00;;;;;;5071697;28;20554;-73
2024/01/25 01:15:06;;;;;;;0.60;0.43;;;10.10;74.70;;;;;;5072281;28;20480;-73
2024/01/25 01:17:34;;;;;;;3.60;2.47;;;10.10;75.00;;;;;;5072115;28;20571;-74
2024/01/25 01:20:02;;;;;;;0.50;0.20;;;10.10;74.70;;;;;;5072195;28;20502;-74
2024/01/25 01:22:30;;;;;;;2.40;1.20;;;10.10;74.00;;;;;;5072248;28;20527;-73
2024/01/25 01:25:00;;;;;;;5.10;4.33;;;10.10;73.50;;;;;;5071848;28;20451;-74
2024/01/25 01:27:27;;;;;;;0.50;0.10;;;10.00;74.10;;;;;;5071075;28;20460;-74
2024/01/25 01:29:55;;;;;;;0.60;0.37;;;10.00;74.50;;;;;;5083340;28;20451;-72
2024/01/25 01:32:23;;;;;;;0.50;0.10;;;10.10;73.90;;;;;;5075421;28;20477;-74
2024/01/25 01:34:51;;;;;;;0.60;0.40;;;10.00;73.50;;;;;;5072719;28;20457;-73
2024/01/25 01:37:19;;;;;;;0.50;0.10;;;10.00;74.20;;;;;;5072845;28;20476;-72
2024/01/25 01:39:47;;;;;;;0.50;0.10;;;10.00;74.50;;;;;;5084158;28;20448;-72
2024/01/25 01:42:17;;;;;;;1.20;1.20;;;10.00;75.50;;;;;;5072165;28;20778;-72
2024/01/25 01:44:45;;;;;;;0.50;0.20;;;10.00;75.10;;;;;;5072601;28;20460;-73
2024/01/25 01:47:12;;;;;;;1.23;1.20;;;10.00;74.80;;;;;;5071782;28;20544;-74
2024/01/25 01:49:40;;;;;;;0.50;0.30;;;9.90;76.20;;;;;;5071703;28;20445;-74
2024/01/25 01:52:09;;;;;;;7.30;2.03;;;9.90;77.30;;;;;;5071749;28;20993;-74
2024/01/25 01:54:37;;;;;;;4.87;1.23;;;9.90;77.30;;;;;;5071709;28;20451;-74
2024/01/25 01:57:07;;;;;;;0.83;0.83;;;9.90;76.40;;;;;;5071742;28;20472;-74
2024/01/25 01:59:37;;;;;;;1.67;0.70;;;9.90;78.60;;;;;;5070742;28;20546;-75
2024/01/25 02:02:05;;;;;;;0.63;0.47;;;9.90;79.10;;;;;;5078000;28;20542;-74
2024/01/25 02:04:33;;;;;;;0.60;0.30;;;9.80;79.00;;;;;;5092158;28;20501;-74
2024/01/25 02:07:02;;;;;;;1.00;0.80;;;9.80;80.40;;;;;;5078502;28;20559;-72
2024/01/25 02:09:30;;;;;;;0.60;0.23;;;9.80;80.20;;;;;;5079802;28;20441;-73
2024/01/25 02:12:02;;;;;;;5.03;1.40;;;9.80;82.10;;;;;;5079953;28;20470;-74
2024/01/25 02:14:31;;;;;;;0.60;0.37;;;9.70;83.70;;;;;;5071547;28;20509;-74
2024/01/25 02:17:00;;;;;;;0.63;0.40;;;9.70;86.50;;;;;;5070711;28;20477;-74
2024/01/25 02:19:28;;;;;;;3.07;0.60;;;9.60;90.70;;;;;;5071860;28;20977;-74
2024/01/25 02:21:59;;;;;;;0.50;0.20;;;9.60;93.20;;;;;;5078323;28;20447;-74
2024/01/25 02:24:29;;;;;;;2.40;1.57;;;9.60;94.80;;;;;;5071840;28;20445;-72
2024/01/25 02:26:57;;;;;;;7.03;1.03;;;9.60;94.90;;;;;;5072859;28;20461;-72
2024/01/25 02:29:25;;;;;;;5.60;3.10;;;9.50;94.30;;;;;;5073706;28;20543;-72
2024/01/25 02:31:52;;;;;;;0.50;0.10;;;9.50;95.10;;;;;;5071697;28;20585;-72
2024/01/25 02:34:20;;;;;;;3.27;0.20;;;9.50;95.80;;;;;;5076921;28;20546;-72
2024/01/25 02:36:48;;;;;;;0.50;0.27;;;9.50;95.60;;;;;;5087585;28;20538;-73
2024/01/25 02:39:18;;;;;;;1.37;0.20;;;;;;;;;;5091761;28;20991;-74
2024/01/25 02:41:47;;;;;;;2.27;2.07;;;9.40;95.60;;;;;;5092119;28;20505;-73
2024/01/25 02:44:15;;;;;;;1.60;1.50;;;9.40;96.00;;;;;;5091562;28;20519;-73
2024/01/25 02:46:44;;;;;;;0.50;0.20;;;9.40;96.00;;;;;;5091585;28;20531;-72
2024/01/25 02:49:12;;;;;;;0.50;0.10;;;9.40;95.90;;;;;;5076291;28;20446;-74
2024/01/25 02:51:40;;;;;;;1.27;0.53;;;9.40;97.00;;;;;;5075720;28;20463;-73
2024/01/25 02:54:08;;;;;;;0.50;0.10;;;9.40;96.50;;;;;;5091656;28;20502;-74
2024/01/25 02:56:36;;;;;;;3.17;0.40;;;9.40;96.40;;;;;;5091392;28;20506;-72
2024/01/25 02:59:05;;;;;;;1.03;0.57;;;9.40;96.80;;;;;;5091821;28;20557;-73
2024/01/25 03:01:40;;;;;;;0.60;0.30;;;9.40;96.50;;;;;;5091287;28;20554;-74
2024/01/25 03:04:09;;;;;;;0.50;0.10;;;9.40;96.20;;;;;;5091300;28;20525;-74
2024/01/25 03:06:37;;;;;;;1.40;1.30;;;9.40;96.90;;;;;;5091246;28;20874;-73
2024/01/25 03:09:05;;;;;;;12.70;2.30;;;9.40;97.10;;;;;;5089996;28;20447;-73
2024/01/25 03:11:33;;;;;;;3.23;1.60;;;9.40;97.50;;;;;;5091164;28;20534;-74
2024/01/25 03:14:01;;;;;;;1.13;0.37;;;9.40;97.60;;;;;;5077608;28;20441;-73
2024/01/25 03:16:31;;;;;;;1.07;0.73;;;9.40;97.40;;;;;;5070753;28;20549;-75
2024/01/25 03:18:59;;;;;;;0.50;0.10;;;9.30;97.40;;;;;;5081727;28;20834;-74
2024/01/25 03:21:27;;;;;;;16.63;1.17;;;9.40;98.10;;;;;;5074501;28;20889;-75
2024/01/25 03:23:55;;;;;;;0.50;0.10;;;9.40;98.00;;;;;;5074167;28;20504;-74
2024/01/25 03:26:23;;;;;;;0.70;0.30;;;9.40;97.60;;;;;;5074843;28;20547;-75
2024/01/25 03:28:51;;;;;;;2.07;1.30;;;9.40;97.70;;;;;;5074382;28;20436;-74
2024/01/25 03:31:19;;;;;;;0.60;0.27;;;9.30;97.70;;;;;;5081823;28;20531;-73
2024/01/25 03:33:48;;;;;;;0.50;0.10;;;9.40;98.20;;;;;;5075054;28;20452;-76
2024/01/25 03:36:17;;;;;;;9.50;0.53;;;9.40;98.20;;;;;;5074095;28;20987;-73
2024/01/25 03:38:45;;;;;;;0.60;0.40;;;9.30;98.60;;;;;;5074342;28;20476;-74
2024/01/25 03:41:12;;;;;;;0.50;0.10;;;9.30;98.90;;;;;;5073762;28;20551;-74
2024/01/25 03:43:40;;;;;;;0.50;0.10;;;9.40;99.10;;;;;;5073961;28;20451;-72
2024/01/25 03:46:12;;;;;;;0.63;0.40;;;9.40;99.40;;;;;;5089437;28;20466;-73
2024/01/25 03:48:40;;;;;;;0.50;0.10;;;9.40;99.30;;;;;;5084749;28;20487;-73
2024/01/25 03:51:09;;;;;;;1.57;1.07;;;9.40;99.10;;;;;;5074225;28;20499;-72
2024/01/25 03:53:37;;;;;;;3.27;0.20;;;9.30;99.20;;;;;;5074854;28;20523;-74
2024/01/25 03:56:11;;;;;;;0.50;0.10;;;9.30;99.60;;;;;;5073958;28;20483;-75
2024/01/25 03:58:40;;;;;;;0.50;0.10;;;9.40;99.90;;;;;;5073763;28;20487;-73
2024/01/25 04:01:09;;;;;;;0.50;0.30;;;9.40;99.90;;;;;;5080938;28;20446;-73
2024/01/25 04:03:37;;;;;;;0.50;0.10;;;9.30;99.90;;;;;;5080228;28;20471;-73
2024/01/25 04:06:05;;;;;;;0.50;0.20;;;9.20;99.90;;;;;;5078199;28;20549;-72
2024/01/25 04:08:35;;;;;;;2.10;1.30;;;9.20;99.90;;;;;;5077989;28;20481;-72
2024/01/25 04:11:03;;;;;;;0.70;0.37;;;9.20;99.90;;;;;;5076896;28;20465;-72
2024/01/25 04:13:30;;;;;;;0.50;0.20;;;9.20;99.90;;;;;;5093189;28;20951;-72
2024/01/25 04:15:59;;;;;;;0.50;0.20;;;9.20;99.90;;;;;;5077415;28;20445;-72
2024/01/25 04:18:26;;;;;;;2.60;1.77;;;9.20;99.90;;;;;;5077073;28;20468;-73
2024/01/25 04:20:54;;;;;;;1.40;1.30;;;9.20;99.90;;;;;;5084013;28;20443;-74
2024/01/25 04:23:22;;;;;;;0.50;0.20;;;;;;;;;;5073454;28;20518;-74
2024/01/25 04:25:52;;;;;;;0.50;0.20;;;9.10;99.90;;;;;;5082269;28;20521;-73
2024/01/25 04:28:19;;;;;;;0.50;0.10;;;9.20;99.90;;;;;;5073455;28;20535;-73
2024/01/25 04:30:47;;;;;;;0.50;0.10;;;9.20;99.90;;;;;;5073459;28;20448;-74
2024/01/25 04:33:15;;;;;;;0.97;0.53;;;9.20;99.90;;;;;;5073310;28;20445;-73
2024/01/25 04:35:45;;;;;;;0.60;0.43;;;9.20;99.90;;;;;;5073088;28;20456;-73
2024/01/25 04:38:13;;;;;;;0.50;0.20;;;9.20;99.90;;;;;;5071467;28;20463;-73
2024/01/25 04:40:41;;;;;;;0.50;0.10;;;9.10;99.90;;;;;;5072896;28;20491;-73
2024/01/25 04:43:11;;;;;;;0.50;0.10;;;9.20;99.90;;;;;;5072899;28;20457;-74
2024/01/25 04:45:39;;;;;;;0.70;0.40;;;9.20;99.90;;;;;;5072783;28;20498;-73
2024/01/25 04:48:08;;;;;;;0.50;0.37;;;9.20;99.90;;;;;;5072765;28;20488;-73
2024/01/25 04:50:36;;;;;;;0.50;0.20;;;9.10;99.90;;;;;;5072813;28;21123;-74
2024/01/25 04:53:04;;;;;;;29.73;0.80;;;9.10;99.90;;;;;;5073498;28;20448;-73
2024/01/25 04:55:32;;;;;;;0.50;0.10;;;9.00;99.90;;;;;;5072551;28;20470;-73
2024/01/25 04:57:59;;;;;;;5.40;0.57;;;9.00;99.90;;;;;;5072546;28;20464;-74
2024/01/25 05:00:29;;;;;;;0.50;0.10;;;9.00;99.90;;;;;;5072452;28;20515;-73
2024/01/25 05:02:57;;;;;;;0.50;0.10;;;9.10;99.90;;;;;;5072676;28;20899;-72
2024/01/25 05:05:25;;;;;;;7.30;2.67;;;9.10;99.90;;;;;;5072787;28;20440;-74
2024/01/25 05:07:53;;;;;;;2.20;1.70;;;9.10;99.90;;;;;;5076934;28;20458;-73
2024/01/25 05:10:22;;;;;;;2.57;2.30;;;9.10;99.90;;;;;;5094628;28;20440;-73
2024/01/25 05:12:50;;;;;;;0.50;0.10;;;9.10;99.90;;;;;;5088864;28;20462;-76
2024/01/25 05:15:18;;;;;;;0.50;0.10;;;9.10;99.90;;;;;;5073623;28;20467;-73
2024/01/25 05:17:47;;;;;;;0.60;0.30;;;9.10;99.90;;;;;;5073755;28;20554;-73
2024/01/25 05:20:17;;;;;;;4.60;4.17;;;9.10;99.90;;;;;;5086432;28;20488;-73
2024/01/25 05:22:46;;;;;;;0.80;0.20;;;9.10;99.90;;;;;;5072814;28;20457;-74
2024/01/25 05:25:14;;;;;;;1.27;0.47;;;9.10;99.90;;;;;;5071638;28;20434;-73
2024/01/25 05:27:42;;;;;;;0.50;0.30;;;9.10;99.90;;;;;;5071551;28;20477;-72
2024/01/25 05:30:10;;;;;;;0.60;0.30;;;9.10;99.90;;;;;;5071474;28;20452;-72
2024/01/25 05:32:38;;;;;;;0.60;0.30;;;9.00;99.90;;;;;;5071961;28;20487;-74
2024/01/25 05:35:09;;;;;;;3.43;0.70;;;9.00;99.90;;;;;;5081017;28;20440;-74
2024/01/25 05:37:37;;;;;;;0.80;0.40;;;9.00;99.90;;;;;;5084682;28;20480;-74
2024/01/25 05:40:06;;;;;;;0.50;0.10;;;9.20;99.90;;;;;;5090977;28;20827;-74
2024/01/25 05:42:34;;;;;;;0.50;0.10;;;9.10;99.90;;;;;;5082882;28;20780;-74
2024/01/25 05:45:03;;;;;;;0.50;0.10;;;9.10;99.90;;;;;;5071338;28;20928;-73
2024/01/25 05:47:31;;;;;;;0.50;0.10;;;9.10;99.90;;;;;;5071455;28;20495;-74
2024/01/25 05:49:59;;;;;;;0.50;0.10;;;9.10;99.90;;;;;;5074522;28;20438;-74
2024/01/25 05:52:29;;;;;;;1.67;1.57;;;9.10;99.90;;;;;;5091699;28;20470;-74
2024/01/25 05:54:57;;;;;;;1.17;0.67;;;9.10;99.90;;;;;;5090043;28;20461;-71
2024/01/25 05:57:28;;;;;;;0.50;0.10;;;9.10;99.90;;;;;;5083941;28;20468;-72
2024/01/25 05:59:56;;;;;;;1.97;1.80;;;9.10;99.90;;;;;;5070979;28;20575;-74
2024/01/25 06:02:23;;;;;;;0.50;0.10;;;9.10;99.90;;;;;;5071483;28;20445;-75
2024/01/25 06:04:51;;;;;;;0.50;0.10;;;9.10;99.90;;;;;;5071327;28;20452;-75
2024/01/25 06:07:20;;;;;;;0.50;0.10;;;9.10;99.90;;;;;;5077656;28;20457;-74
2024/01/25 06:09:49;;;;;;;0.50;0.10;;;9.10;99.90;;;;;;5071648;28;20491;-75
2024/01/25 06:12:17;;;;;;;0.50;0.10;;;9.20;99.90;;;;;;5079830;28;20497;-72
2024/01/25 06:14:45;;;;;;;1.17;0.30;;;9.20;99.90;;;;;;5073070;28;20444;-73
2024/01/25 06:17:13;;;;;;;0.50;0.10;;;9.20;99.90;;;;;;5077372;28;20490;-73
2024/01/25 06:19:41;;;;;;;0.50;0.10;;;9.20;99.90;;;;;;5070408;28;20818;-73
2024/01/25 06:22:09;;;;;;;0.70;0.67;;;9.10;99.90;;;;;;5070820;28;20538;-73
2024/01/25 06:24:37;;;;;;;0.60;0.47;;;9.00;99.90;;;;;;5071358;28;20491;-72
2024/01/25 06:27:06;;;;;;;1.27;0.93;;;9.00;99.90;;;;;;5074808;28;20518;-75
2024/01/25 06:29:34;;;;;;;4.87;0.80;;;8.90;99.90;;;;;;5082741;28;20472;-74
2024/01/25 06:32:02;;;;;;;1.47;0.93;;;8.80;99.90;;;;;;5073195;28;20449;-72
2024/01/25 06:34:38;;;;;;;0.60;0.40;;;8.70;99.90;;;;;;5092741;28;20471;-72
2024/01/25 06:37:06;;;;;;;12.70;1.80;;;8.80;99.90;;;;;;5098628;28;20466;-72
2024/01/25 06:39:34;;;;;;;15.43;0.57;;;8.70;99.90;;;;;;5082288;28;20459;-72
2024/01/25 06:42:02;;;;;;;1.90;1.80;;;8.70;99.90;;;;;;5078474;28;20487;-70
2024/01/25 06:44:32;;;;;;;3.80;0.97;;;8.80;99.90;;;;;;5075254;28;20511;-72
2024/01/25 06:47:00;;;;;;;0.93;0.40;;;8.80;99.90;;;;;;5072834;28;20491;-74
2024/01/25 06:49:27;;;;;;;0.50;0.10;;;8.90;99.90;;;;;;5072308;28;20449;-75
2024/01/25 06:51:55;;;;;;;0.50;0.10;;;8.80;99.90;;;;;;5080533;28;20461;-73
2024/01/25 06:54:23;;;;;;;0.70;0.23;;;8.80;99.90;;;;;;5074189;28;20543;-73
2024/01/25 06:56:52;;;;;;;1.20;0.30;;;12.80;99.90;;;;;;5074897;28;21006;-73
2024/01/25 06:59:20;;;;;;;0.60;0.40;;;8.70;99.90;;;;;;5080665;28;21003;-73
2024/01/25 07:01:49;;;;;;;0.50;0.30;;;8.70;99.90;;;;;;5095267;28;20572;-73
2024/01/25 07:04:18;;;;;;;0.50;0.20;;;8.70;99.90;;;;;;5095724;28;20444;-74
2024/01/25 07:06:47;;;;;;;0.87;0.50;;;8.70;99.90;;;;;;5096273;28;20461;-74
2024/01/25 07:09:15;;;;;;;0.50;0.20;;;8.60;99.90;;;;;;5079998;28;20472;-75
2024/01/25 07:11:42;;;;;;;0.50;0.10;;;8.60;99.90;;;;;;5075018;28;20461;-74
2024/01/25 07:14:11;;;;;;;0.50;0.10;;;8.60;99.90;;;;;;5078334;28;20471;-73
2024/01/25 07:16:39;;;;;;;0.50;0.20;;;8.60;99.90;;;;;;5088901;28;20479;-74
2024/01/25 07:19:08;;;;;;;0.50;0.10;;;;;;;;;;5084494;28;20428;-74
2024/01/25 07:21:36;;;;;;;0.50;0.10;;;8.70;99.90;;;;;;5082753;28;20486;-74
2024/01/25 07:24:05;;;;;;;1.37;1.23;;;8.70;99.90;;;;;;5082437;28;20939;-73
2024/01/25 07:26:33;;;;;;;0.60;0.30;;;8.70;99.90;;;;;;5079080;28;21003;-74
2024/01/25 07:29:01;;;;;;;0.50;0.10;;;8.60;99.90;;;;;;5079191;28;20449;-74
2024/01/25 07:31:29;;;;;;;0.50;0.20;;;8.60;99.90;;;;;;5083882;28;20511;-72
2024/01/25 07:33:57;;;;;;;0.50;0.10;;;8.70;99.90;;;;;;5085698;28;20439;-73
2024/01/25 07:36:26;;;;;;;1.00;0.40;;;8.70;99.90;;;;;;5085237;28;20538;-72
2024/01/25 07:38:57;;;;;;;0.50;0.10;;;8.70;99.90;;;;;;5082143;28;20774;-74
2024/01/25 07:41:25;;;;;;;0.50;0.10;;;8.70;99.90;;;;;;5076297;28;20998;-73
2024/01/25 07:43:55;;;;;;;0.50;0.10;;;8.70;99.90;;;;;;5087995;28;20441;-73
2024/01/25 07:46:24;;;;;;;0.50;0.10;;;8.70;99.90;;;;;;5083348;28;20866;-72
2024/01/25 07:48:52;;;;;;;0.50;0.10;;;8.80;99.90;;;;;;5075397;28;20451;-73
2024/01/25 07:51:20;;;;;;;0.50;0.10;;;8.80;99.90;;;;;;5074785;28;20453;-73
2024/01/25 07:53:49;;;;;;;0.50;0.10;;;8.90;99.90;;;;;;5073842;28;20446;-73
2024/01/25 07:56:17;;;;;;;0.50;0.10;;;9.00;99.90;;;;;;5072678;28;20496;-73
2024/01/25 07:58:45;;;;;;;0.97;0.30;;;9.00;99.90;;;;;;5073626;28;20536;-75
2024/01/25 08:01:15;;;;;;;0.50;0.10;;;9.00;99.90;;;;;;5074198;28;20480;-73
2024/01/25 08:03:43;;;;;;;0.50;0.10;;;9.00;99.90;;;;;;5074519;28;20530;-74
2024/01/25 08:06:11;;;;;;;0.50;0.10;;;9.00;99.90;;;;;;5074015;28;20466;-73
2024/01/25 08:08:38;;;;;;;0.50;0.10;;;9.00;99.90;;;;;;5073681;28;20526;-74
2024/01/25 08:11:08;;;;;;;0.50;0.10;;;8.90;99.90;;;;;;5073607;28;20861;-74
2024/01/25 08:13:36;;;;;;;0.50;0.10;;;8.90;99.90;;;;;;5073365;28;20547;-73
2024/01/25 08:16:04;;;;;;;0.50;0.10;;;9.00;99.90;;;;;;5073708;28;20445;-73
2024/01/25 08:18:32;;;;;;;0.50;0.10;;;9.00;99.90;;;;;;5074053;28;20499;-74
2024/01/25 08:21:00;;;;;;;0.50;0.10;;;9.00;99.90;;;;;;5073721;28;20839;-75
2024/01/25 08:23:29;;;;;;;0.50;0.10;;;9.10;99.90;;;;;;5073964;28;20464;-73
2024/01/25 08:25:57;;;;;;;0.60;0.20;;;9.10;99.90;;;;;;5073862;28;20441;-74
2024/01/25 08:28:26;;;;;;;0.50;0.10;;;9.00;99.90;;;;;;5074251;28;20502;-74
2024/01/25 08:30:54;;;;;;;0.50;0.20;;;9.00;99.90;;;;;;5073119;28;20476;-73
2024/01/25 08:33:24;;;;;;;0.50;0.10;;;8.90;99.90;;;;;;5073265;28;20448;-73
2024/01/25 08:35:52;;;;;;;0.87;0.40;;;8.90;99.90;;;;;;5082931;28;20528;-72
2024/01/25 08:38:20;;;;;;;0.50;0.10;;;8.90;99.90;;;;;;5081569;28;20960;-74
2024/01/25 08:40:48;;;;;;;0.50;0.20;;;8.90;99.90;;;;;;5083112;28;20460;-71
2024/01/25 08:43:17;;;;;;;0.97;0.50;;;8.90;99.90;;;;;;5087697;28;20430;-75
2024/01/25 08:45:46;;;;;;;0.50;0.10;;;8.90;99.90;;;;;;5086318;28;20435;-72
2024/01/25 08:48:14;;;;;;;0.50;0.10;;;8.90;99.90;;;;;;5079705;28;20456;-72
2024/01/25 08:50:43;;;;;;;1.30;0.50;;;8.80;99.90;;;;;;5084450;28;20461;-75
2024/01/25 08:53:11;;;;;;;10.63;0.50;;;8.80;99.90;;;;;;5078178;28;20519;-74
2024/01/25 08:55:39;;;;;;;1.53;1.27;;;8.70;99.90;;;;;;5073421;28;20476;-74
2024/01/25 08:58:07;;;;;;;1.53;0.40;;;8.70;99.90;;;;;;5072283;28;20472;-75
2024/01/25 09:00:35;;;;;;;13.23;3.20;;;8.70;99.90;;;;;;5072404;28;20936;-74
2024/01/25 09:03:04;;;;;;;0.60;0.30;;;8.70;99.90;;;;;;5071400;28;20491;-77
2024/01/25 09:05:34;;;;;;;1.43;1.03;;;8.70;99.90;;;;;;5071834;28;20444;-75
2024/01/25 09:08:02;;;;;;;0.50;0.10;;;8.80;99.90;;;;;;5071705;28;20478;-73
2024/01/25 09:10:30;;;;;;;0.50;0.20;;;8.80;99.90;;;;;;5072631;28;20444;-76
2024/01/25 09:12:58;;;;;;;1.13;0.57;;;8.90;99.90;;;;;;5072054;28;20462;-73
2024/01/25 09:15:26;;;;;;;0.60;0.30;;;8.80;99.90;;;;;;5082346;28;20536;-75
2024/01/25 09:17:54;;;;;;;0.50;0.10;;;8.80;99.90;;;;;;5073851;28;20464;-75
2024/01/25 09:20:23;;;;;;;3.50;1.13;;;8.80;99.90;;;;;;5072977;28;20834;-75
2024/01/25 09:22:53;;;;;;;1.17;0.83;;;8.80;99.90;;;;;;5073274;28;20476;-72
2024/01/25 09:25:21;;;;;;;0.93;0.87;;;8.70;99.90;;;;;;5078460;28;20486;-72
2024/01/25 09:27:49;;;;;;;6.43;1.57;;;8.70;99.90;;;;;;5084287;28;20860;-73
2024/01/25 09:30:18;;;;;;;0.70;0.20;;;8.80;99.90;;;;;;5077169;28;20926;-75
2024/01/25 09:32:46;;;;;;;0.83;0.63;;;8.80;99.90;;;;;;5079746;28;20876;-75
2024/01/25 09:35:15;;;;;;;0.60;0.30;;;9.00;99.90;;;;;;5070924;28;20515;-74
2024/01/25 09:37:45;;;;;;;0.87;0.77;;;9.00;99.90;;;;;;5080471;28;20464;-73
2024/01/25 09:40:13;;;;;;;1.80;0.87;;;9.00;99.90;;;;;;5076613;28;20446;-73
2024/01/25 09:42:42;;;;;;;0.80;0.50;;;9.00;99.90;;;;;;5088712;28;20486;-75
2024/01/25 09:45:17;;;;;;;6.03;0.93;;;9.10;99.90;;;;;;5078247;28;20950;-76
2024/01/25 09:47:45;;;;;;;0.50;0.10;;;9.10;99.90;;;;;;5087993;28;20509;-73
2024/01/25 09:50:14;;;;;;;0.73;0.30;;;9.20;99.90;;;;;;5082422;28;20456;-73
2024/01/25 09:52:48;;;;;;;0.60;0.20;;;9.20;99.90;;;;;;5082221;28;20527;-75
2024/01/25 09:55:19;;;;;;;0.73;0.30;;;9.20;99.90;;;;;;5074737;28;20450;-76
2024/01/25 09:57:49;;;;;;;0.50;0.10;;;9.20;99.90;;;;;;5080925;28;20471;-76
2024/01/25 10:00:20;;;;;;;0.50;0.30;;;9.30;99.90;;;;;;5072390;28;21001;-75
2024/01/25 10:02:49;;;;;;;0.60;0.50;;;9.40;99.90;;;;;;5078310;28;20504;-74
2024/01/25 10:05:18;;;;;;;4.10;1.03;;;9.40;99.90;;;;;;5083577;28;20865;-74
2024/01/25 10:07:47;;;;;;;1.87;0.67;;;9.40;99.90;;;;;;5078841;28;20491;-74
2024/01/25 10:10:15;;;;;;;0.50;0.10;;;9.50;99.90;;;;;;5080704;28;20786;-71
2024/01/25 10:12:44;;;;;;;0.50;0.10;;;9.60;99.90;;;;;;5082921;28;20482;-73
2024/01/25 10:15:12;;;;;;;1.27;1.17;;;9.70;99.90;;;;;;5071061;28;20882;-73
2024/01/25 10:17:40;;;;;;;0.50;0.10;;;9.80;99.90;;;;;;5077759;28;20535;-74
2024/01/25 10:20:27;;;;;;;9.10;2.97;;;9.80;97.20;;;;;;5082780;28;20451;-73
2024/01/25 10:23:01;;;;;;;7.70;3.60;;;;;;;;;;5078047;28;20487;-72
2024/01/25 10:25:29;;;;;;;0.50;0.10;;;9.80;94.00;;;;;;5077815;28;20984;-72
2024/01/25 10:27:58;;;;;;;0.50;0.30;;;9.70;94.30;;;;;;5082506;28;20474;-72
2024/01/25 10:30:28;;;;;;;0.50;0.20;;;9.70;94.50;;;;;;5085559;28;20522;-73
2024/01/25 10:32:57;;;;;;;2.20;2.00;;;9.70;94.20;;;;;;5083152;28;21197;-73
2024/01/25 10:35:26;;;;;;;0.50;0.10;;;9.70;93.70;;;;;;5080462;28;20452;-72
2024/01/25 10:37:55;;;;;;;0.50;0.40;;;9.80;94.00;;;;;;5077928;28;20468;-74
2024/01/25 10:40:25;;;;;;;1.43;1.20;;;9.80;94.30;;;;;;5075921;28;20541;-73
2024/01/25 10:42:53;;;;;;;2.23;2.13;;;9.90;95.00;;;;;;5074937;28;20493;-74
2024/01/25 10:45:21;;;;;;;0.50;0.10;;;9.90;96.40;;;;;;5083286;28;20447;-73
2024/01/25 10:47:50;;;;;;;0.70;0.37;;;10.00;96.70;;;;;;5074695;28;20572;-74
2024/01/25 10:50:18;;;;;;;1.27;0.40;;;10.00;96.80;;;;;;5084189;28;20475;-73
2024/01/25 10:52:48;;;;;;;1.33;1.23;;;9.90;97.60;;;;;;5082774;28;20460;-73
2024/01/25 10:55:17;;;;;;;1.60;1.50;;;10.00;97.70;;;;;;5090582;28;20474;-74
2024/01/25 10:57:47;;;;;;;2.93;1.63;;;9.80;97.80;;;;;;5089987;28;20535;-73
2024/01/25 11:00:16;;;;;;;0.50;0.10;;;9.90;97.00;;;;;;5090169;28;20517;-73
2024/01/25 11:02:46;;;;;;;0.50;0.10;;;9.90;98.40;;;;;;5089384;28;20481;-73
2024/01/25 11:05:15;;;;;;;0.50;0.20;;;10.00;97.90;;;;;;5103452;28;20902;-74
2024/01/25 11:07:45;;;;;;;0.50;0.10;;;10.00;97.30;;;;;;5084992;28;20567;-75
2024/01/25 11:10:17;;;;;;;2.10;1.90;;;10.00;95.90;;;;;;5083994;28;20471;-74
2024/01/25 11:12:57;;;;;;;1.20;1.03;;;10.10;96.00;;;;;;5084225;28;20436;-76
2024/01/25 11:15:33;;;;;;;2.50;1.40;;;10.10;94.80;;;;;;5076849;28;20944;-72
2024/01/25 11:18:02;;;;;;;0.50;0.10;;;10.10;93.80;;;;;;5074543;28;20510;-74
2024/01/25 11:20:31;;;;;;;0.50;0.10;;;10.20;94.70;;;;;;5074835;28;20813;-77
2024/01/25 11:23:02;;;;;;;0.50;0.10;;;10.20;94.30;;;;;;5079380;28;20486;-76
2024/01/25 11:25:32;;;;;;;0.50;0.10;;;10.20;94.20;;;;;;5074598;28;20561;-75
2024/01/25 11:28:02;;;;;;;0.60;0.40;;;10.30;94.10;;;;;;5074722;28;20465;-75
2024/01/25 11:30:33;;;;;;;0.50;0.10;;;10.30;94.60;;;;;;5087102;28;20923;-73
2024/01/25 11:33:05;;;;;;;0.50;0.10;;;10.30;92.80;;;;;;5075604;28;20468;-72
2024/01/25 11:35:33;;;;;;;0.50;0.10;;;10.20;92.10;;;;;;5079916;28;20444;-73
2024/01/25 11:38:01;;;;;;;0.50;0.20;;;10.20;92.30;;;;;;5076599;28;20497;-74
2024/01/25 11:40:31;;;;;;;0.50;0.10;;;10.20;92.80;;;;;;5082531;28;20809;-73
2024/01/25 11:43:10;;;;;;;0.50;0.10;;;10.30;93.60;;;;;;5084005;28;20493;-74
2024/01/25 11:45:42;;;;;;;3.83;1.63;;;10.40;90.80;;;;;;5081928;28;20444;-73
2024/01/25 11:48:11;;;;;;;0.60;0.30;;;10.30;87.90;;;;;;5092761;28;20450;-74
2024/01/25 11:50:39;;;;;;;0.50;0.20;;;10.30;84.60;;;;;;5091843;28;20469;-74
2024/01/25 11:53:08;;;;;;;0.50;0.10;;;10.30;87.10;;;;;;5083143;28;20444;-74
2024/01/25 11:55:36;;;;;;;0.50;0.10;;;10.40;89.20;;;;;;5077386;28;20445;-73
2024/01/25 11:58:05;;;;;;;5.60;5.17;;;10.50;87.00;;;;;;5082637;28;20515;-74
2024/01/25 12:00:34;;;;;;;0.50;0.10;;;10.50;85.60;;;;;;5083059;28;20448;-73
2024/01/25 12:03:02;;;;;;;0.50;0.10;;;10.50;83.50;;;;;;5078741;28;20486;-73
2024/01/25 12:05:31;;;;;;;0.70;0.30;;;10.60;82.80;;;;;;5074315;28;20974;-75
2024/01/25 12:07:59;;;;;;;0.50;0.10;;;10.60;81.80;;;;;;5084010;28;20471;-73
2024/01/25 12:10:27;;;;;;;5.77;2.67;;;10.60;82.10;;;;;;5088021;28;20532;-73
2024/01/25 12:12:56;;;;;;;0.50;0.10;;;10.60;80.20;;;;;;5081341;28;20447;-78
2024/01/25 12:15:26;;;;;;;0.60;0.20;;;10.60;79.10;;;;;;5078096;28;20438;-72
2024/01/25 12:17:54;;;;;;;0.50;0.10;;;10.70;80.00;;;;;;5085321;28;20480;-74
2024/01/25 12:20:23;;;;;;;0.50;0.10;;;10.60;77.20;;;;;;5073803;28;20444;-73
2024/01/25 12:22:52;;;;;;;0.50;0.10;;;;;;;;;;5078479;28;20437;-75
2024/01/25 12:25:20;;;;;;;0.50;0.10;;;10.70;76.10;;;;;;5081162;28;20827;-73
2024/01/25 12:27:49;;;;;;;3.23;2.10;;;10.70;76.80;;;;;;5072772;28;20465;-74
2024/01/25 12:30:17;;;;;;;0.50;0.20;;;;;;;;;;5080923;28;20487;-76
2024/01/25 12:32:49;;;;;;;0.50;0.10;;;10.80;76.40;;;;;;5074255;28;20481;-75
2024/01/25 12:35:17;;;;;;;0.60;0.37;;;10.80;74.80;;;;;;5073751;28;20442;-74
2024/01/25 12:37:45;;;;;;;0.60;0.30;;;10.80;73.00;;;;;;5078054;28;20460;-75
2024/01/25 12:40:14;;;;;;;0.50;0.20;;;10.70;71.70;;;;;;5074273;28;20957;-74
2024/01/25 12:42:42;;;;;;;1.57;1.03;;;10.70;73.00;;;;;;5088806;28;20673;-73
2024/01/25 12:45:10;;;;;;;0.50;0.10;;;10.70;73.00;;;;;;5088029;28;20484;-73
2024/01/25 12:47:38;;;;;;;0.50;0.10;;;10.80;74.40;;;;;;5079697;28;20496;-73
2024/01/25 12:50:08;;;;;;;0.50;0.10;;;10.90;73.80;;;;;;5082598;28;20448;-73
2024/01/25 12:52:37;;;;;;;0.50;0.10;;;11.00;72.80;;;;;;5090536;28;20968;-74
2024/01/25 12:55:06;;;;;;;0.50;0.30;;;11.00;68.00;;;;;;5088733;28;20524;-72
2024/01/25 12:57:34;;;;;;;0.60;0.30;;;11.00;63.60;;;;;;5081246;28;20472;-74
2024/01/25 13:00:03;;;;;;;1.03;0.70;;;10.90;62.20;;;;;;5080997;28;20462;-74
2024/01/25 13:02:31;;;;;;;0.70;0.60;;;11.00;61.80;;;;;;5077301;28;20498;-74